Flight Track Log - Related Links

Times and Time Zones

All times are in EDT time to prevent confusion due to time zone crossing. See the RAM203 flight status page for this flight to view local times or setup timezone preferences in your user account.

Time Position Orientation Groundspeed Altitude Reporting Facility
EDT Latitude Longitude Course Direction KTS MPH feet Rate Location/Type
Sat 11:29:37 PM 40.6400 -73.7990 294° West 165 190  Level FlightAware ADS-B
Sat 11:29:57 PM 40.6320 -73.7810 120° Southeast 178 205 400 1,655 Climbing FlightAware ADS-B
Sat 11:30:06 PM 40.6280 -73.7750 131° Southeast 183 211 800 2,857 Climbing FlightAware ADS-B
Sat 11:30:18 PM 40.6190 -73.7660 143° Southeast 189 217 1,400 3,188 Climbing FlightAware ADS-B
Sat 11:30:38 PM 40.6040 -73.7540 149° Southeast 181 208 2,500 3,300 Climbing FlightAware ADS-B
Sat 11:30:58 PM 40.5900 -73.7440 152° Southeast 170 196 3,600 2,270 Climbing FlightAware ADS-B
Sat 11:31:15 PM 40.5780 -73.7330 145° Southeast 190 219 3,900 1,043 Climbing FlightAware ADS-B
Sat 11:31:21 PM 40.5750 -73.7270 123° Southeast 199 229 4,000 500 Climbing FlightAware ADS-B
Sat 11:31:27 PM 40.5740 -73.7200 101° East 210 242 4,000 600 Level FlightAware ADS-B
Sat 11:31:31 PM 40.5730 -73.7140 102° East 217 250 4,100 2,000 Climbing FlightAware ADS-B
Sat 11:31:51 PM 40.5740 -73.6860 87° East 232 267 4,800 1,950 Climbing FlightAware ADS-B
Sat 11:32:11 PM 40.5730 -73.6560 93° East 256 295 5,400 1,935 Climbing FlightAware ADS-B
Sat 11:32:22 PM 40.5730 -73.6400 90° East 263 303 5,800 2,571 Climbing FlightAware ADS-B
Sat 11:32:46 PM 40.5720 -73.6010 92° East 271 312 6,900 2,864 Climbing FlightAware ADS-B
Sat 11:33:06 PM 40.5710 -73.5680 92° East 275 316 7,900 3,150 Climbing FlightAware ADS-B
Sat 11:33:26 PM 40.5710 -73.5340 90° East 277 319 9,000 3,150 Climbing FlightAware ADS-B
Sat 11:33:46 PM 40.5700 -73.5000 92° East 282 325 10,000 1,895 Climbing FlightAware ADS-B
Sat 11:34:23 PM 40.5690 -73.4320 91° East 325 374 10,800 1,333 Climbing FlightAware ADS-B
Sat 11:34:58 PM 40.5670 -73.3590 92° East 364 419 11,600 1,701 Climbing FlightAware ADS-B
Sat 11:35:30 PM 40.5654 -73.2830 92° East 391 450 12,700 2,215 Climbing FlightAware ADS-B (KSNC)
Sat 11:36:03 PM 40.5673 -73.2038 88° East 402 463 14,000 2,548 Climbing FlightAware ADS-B (KSNC)
Sat 11:36:43 PM 40.5757 -73.1291 82° East 412 474 15,800 2,734 Climbing FlightAware ADS-B (KSNC)
Sat 11:37:22 PM 40.5880 -73.0145 82° East 420 483 17,600 2,609 Climbing FlightAware ADS-B (KSNC)
Sat 11:37:52 PM 40.5970 -72.9340 82° East 425 489 18,800 2,341 Climbing FlightAware ADS-B
Sat 11:38:03 PM 40.5997 -72.9123 81° East 429 494 19,200 2,195 Climbing FlightAware ADS-B (KSNC)
Sat 11:38:33 PM 40.6091 -72.8287 81° East 436 502 20,300 2,200 Climbing FlightAware ADS-B (KSNC)
Sat 11:39:03 PM 40.6182 -72.7483 82° East 441 507 21,400 2,164 Climbing FlightAware ADS-B (KSNC)
Sat 11:39:34 PM 40.6276 -72.6648 82° East 447 514 22,500 2,032 Climbing FlightAware ADS-B (KSNC)
Sat 11:40:05 PM 40.6368 -72.5824 82° East 453 521 23,500 1,869 Climbing FlightAware ADS-B (KSNC)
Sat 11:40:35 PM 40.6458 -72.5011 82° East 459 528 24,400 1,950 Climbing FlightAware ADS-B (KSNC)
Sat 11:41:25 PM 40.6611 -72.3614 82° East 461 531 26,100 2,400 Climbing FlightAware ADS-B (KSNC)
Sat 11:42:00 PM 40.6710 -72.2660 82° East 448 516 27,800 2,507 Climbing FlightAware ADS-B
Sat 11:42:32 PM 40.6810 -72.1790 81° East 445 512 28,900 1,881 Climbing FlightAware ADS-B
Sat 11:43:07 PM 40.6910 -72.0860 82° East 445 512 29,900 1,680 Climbing FlightAware ADS-B
Sat 11:43:22 PM 40.6948 -72.0479 82° East 445 512 30,300 917 Climbing FlightAware ADS-B (KSNC)
Sat 11:44:19 PM 40.7110 -71.8940 82° East 451 519 31,000 712 Climbing FlightAware ADS-B
Sat 11:44:21 PM 40.7006 -71.9935 262° West 448 516 31,000  Level FlightAware ADS-B (KSNC)
Sat 11:44:51 PM 40.7200 -71.8030 82° East 451 519 31,000  Level FlightAware ADS-B
Sat 11:45:28 PM 40.7300 -71.7070 82° East 449 517 31,000  Level FlightAware ADS-B
Sat 11:46:04 PM 40.7410 -71.6080 82° East 448 516 31,000  Level FlightAware ADS-B
Sat 11:46:39 PM 40.7500 -71.5130 83° East 447 514 31,000  Level FlightAware ADS-B
Sat 11:47:12 PM 40.7590 -71.4230 82° East 446 513 31,000  Level FlightAware ADS-B
Sat 11:47:47 PM 40.7690 -71.3300 82° East 445 512 31,000  Level FlightAware ADS-B
Sat 11:48:21 PM 40.7770 -71.2410 83° East 445 512 31,000  Level FlightAware ADS-B
Sat 11:48:56 PM 40.7870 -71.1440 82° East 445 512 31,000  Level FlightAware ADS-B
Sat 11:49:34 PM 40.7960 -71.0570 82° East 445 512 31,000  Level FlightAware ADS-B
Sat 11:50:10 PM 40.8050 -70.9740 82° East 445 512 31,000  Level FlightAware ADS-B
Sat 11:50:46 PM 40.8140 -70.8920 82° East 445 512 31,000  Level FlightAware ADS-B
Sat 11:51:22 PM 40.8220 -70.8090 83° East 445 512 31,000  Level FlightAware ADS-B
Sat 11:51:59 PM 40.8310 -70.7250 82° East 445 512 31,000  Level FlightAware ADS-B
Sat 11:52:35 PM 40.8400 -70.6420 82° East 445 512 31,000  Level FlightAware ADS-B
Sat 11:53:11 PM 40.8490 -70.5600 82° East 445 512 31,000  Level FlightAware ADS-B
Sat 11:53:47 PM 40.8580 -70.4770 82° East 445 512 31,000  Level FlightAware ADS-B
Sat 11:54:23 PM 40.8670 -70.3950 82° East 445 512 31,000  Level FlightAware ADS-B
Sat 11:54:59 PM 40.8750 -70.3120 83° East 445 512 31,000  Level FlightAware ADS-B
Sat 11:55:35 PM 40.8840 -70.2300 82° East 445 512 31,000  Level FlightAware ADS-B
Sat 11:56:11 PM 40.8930 -70.1470 82° East 445 512 31,000  Level FlightAware ADS-B
Sat 11:56:47 PM 40.9020 -70.0650 82° East 445 512 31,000  Level FlightAware ADS-B
Sat 11:57:23 PM 40.9100 -69.9820 83° East 445 512 31,000  Level FlightAware ADS-B
Sat 11:57:59 PM 40.9190 -69.9000 82° East 445 512 31,000  Level FlightAware ADS-B
Sat 11:58:35 PM 40.9280 -69.8170 82° East 445 512 31,000 600 Level FlightAware ADS-B
Sat 11:59:39 PM 40.9406 -69.4042 82° East 443 510 32,000 484 Climbing New York Center
Sun 12:00:39 AM 40.9553 -69.2392 83° East 448 516 32,000  Level New York Center
Sun 12:01:40 AM 40.9678 -69.0742 84° East 448 516 32,000  Level New York Center
Sun 12:02:39 AM 40.9822 -68.9225 83° East 455 524 32,000  Level New York Center
Sun 12:03:39 AM 40.9922 -68.7575 85° East 455 524 32,000  Level New York Center
Sun 12:04:39 AM 41.0061 -68.5922 84° East 455 524 32,000  Level New York Center
Sun 12:05:39 AM 41.0175 -68.4267 85° East 450 518 32,000  Level New York Center
Sun 12:06:39 AM 41.0328 -68.2558 83° East 450 518 32,000  Level New York Center
Sun 12:12:33 AM 41.1048 -67.1938 83° East 487 560 32,000  Level FlightAware ADS-B (EGUN / MHZ)
Sun 12:14:01 AM 41.1176 -66.9340 86° East 487 560 32,000  Level FlightAware ADS-B (EGUN / MHZ)
Sun 12:15:16 AM 41.1167 -67.0000 89° East 501 577 32,000  Level New York Oceanic (ODAPS)
Sun 12:15:22 AM 41.1207 -66.6909 89° East 487 560 32,000  Level FlightAware ADS-B (EGUN / MHZ)
Sun 12:15:56 AM 41.1218 -66.5864 89° East 488 562 32,000  Level FlightAware ADS-B (EGUN / MHZ)
Sun 12:16:26 AM 41.1226 -66.4972 89° East 488 562 32,000  Level FlightAware ADS-B (EGUN / MHZ)
Sun 12:16:59 AM 41.1234 -66.4049 89° East 489 563 32,000  Level FlightAware ADS-B (EGUN / MHZ)
Sun 12:17:41 AM 41.1245 -66.2759 89° East 490 564 32,000  Level FlightAware ADS-B (EGUN / MHZ)
Sun 12:18:13 AM 41.1251 -66.1786 89° East 492 566 32,000  Level FlightAware ADS-B (EGUN / MHZ)
Sun 12:19:03 AM 41.1260 -66.0269 90° East 496 571 32,000  Level FlightAware ADS-B (EGUN / MHZ)
Sun 12:20:03 AM 41.1267 -65.8927 90° East 499 574 32,000  Level FlightAware ADS-B (EGUN / MHZ)
Sun 12:20:43 AM 41.1272 -65.7353 89° East 502 578 32,000  Level FlightAware ADS-B (EGUN / MHZ)
Sun 12:21:29 AM 41.1274 -65.6667 90° East 506 582 32,000  Level FlightAware ADS-B (EGUN / MHZ)
Sun 12:23:00 AM 41.1276 -65.3797 90° East  Level FlightAware Approximate
Sun 12:24:00 AM 41.1274 -65.1904 90° East  Level FlightAware Approximate
Sun 12:25:00 AM 41.1269 -65.0012 90° East  Level FlightAware Approximate
Sun 12:26:00 AM 41.1260 -64.8119 90° East  Level FlightAware Approximate
Sun 12:27:00 AM 41.1248 -64.6227 90° East  Level FlightAware Approximate
Sun 12:28:00 AM 41.1233 -64.4335 91° East  Level FlightAware Approximate
Sun 12:29:00 AM 41.1216 -64.2442 91° East  Level FlightAware Approximate
Sun 12:30:00 AM 41.1194 -64.0550 91° East  Level FlightAware Approximate
Sun 12:31:00 AM 41.1171 -63.8658 91° East  Level FlightAware Approximate
Sun 12:32:00 AM 41.1143 -63.6766 91° East  Level FlightAware Approximate
Sun 12:33:00 AM 41.1113 -63.4875 91° East  Level FlightAware Approximate
Sun 12:34:00 AM 41.1080 -63.2983 91° East  Level FlightAware Approximate
Sun 12:35:00 AM 41.1044 -63.1092 91° East  Level FlightAware Approximate
Sun 12:36:00 AM 41.1004 -62.9201 92° East  Level FlightAware Approximate
Sun 12:37:00 AM 41.0961 -62.7310 92° East  Level FlightAware Approximate
Sun 12:38:00 AM 41.0916 -62.5419 92° East  Level FlightAware Approximate
Sun 12:39:00 AM 41.0867 -62.3529 92° East  Level FlightAware Approximate
Sun 12:40:00 AM 41.0815 -62.1639 92° East  Level FlightAware Approximate
Sun 12:41:00 AM 41.0760 -61.9749 92° East  Level FlightAware Approximate
Sun 12:42:00 AM 41.0702 -61.7860 92° East  Level FlightAware Approximate
Sun 12:43:00 AM 41.0641 -61.5971 92° East  Level FlightAware Approximate
Sun 12:44:00 AM 41.0577 -61.4082 93° East  Level FlightAware Approximate
Sun 12:45:00 AM 41.0509 -61.2194 93° East  Level FlightAware Approximate
Sun 12:46:00 AM 41.0439 -61.0306 93° East  Level FlightAware Approximate
Sun 12:47:00 AM 41.0365 -60.8418 93° East  Level FlightAware Approximate
Sun 12:48:00 AM 41.0289 -60.6531 93° East  Level FlightAware Approximate
Sun 12:49:00 AM 41.0209 -60.4645 93° East  Level FlightAware Approximate
Sun 12:50:00 AM 41.0127 -60.2758 93° East  Level FlightAware Approximate
Sun 12:51:00 AM 41.0041 -60.0873 93° East  Level FlightAware Approximate
Sun 12:52:00 AM 41.0022 -59.8986 88° East  Level FlightAware Approximate
Sun 12:53:00 AM 41.0059 -59.7097 88° East  Level FlightAware Approximate
Sun 12:53:37 AM 41.0000 -60.0000 88° East 545 627 32,000  Level New York Oceanic (ODAPS)
Sun 12:54:00 AM 41.0094 -59.5209 89° East  Level FlightAware Approximate
Sun 12:55:00 AM 41.0125 -59.3320 89° East  Level FlightAware Approximate
Sun 12:56:00 AM 41.0154 -59.1431 89° East  Level FlightAware Approximate
Sun 12:57:00 AM 41.0179 -58.9542 89° East  Level FlightAware Approximate
Sun 12:58:00 AM 41.0201 -58.7653 89° East  Level FlightAware Approximate
Sun 12:59:00 AM 41.0220 -58.5764 89° East  Level FlightAware Approximate
Sun 01:00:00 AM 41.0266 -57.8001 90° East 545 627 32,000  Level FlightAware Transoceanic
Sun 01:01:00 AM 41.0270 -57.6000 90° East 545 627 32,000  Level FlightAware Transoceanic
Sun 01:02:00 AM 41.0270 -57.4000 90° East 545 627 32,000  Level FlightAware Transoceanic
Sun 01:03:00 AM 41.0266 -57.1999 90° East 545 627 32,000  Level FlightAware Transoceanic
Sun 01:04:00 AM 41.0259 -56.9999 90° East 545 627 32,000  Level FlightAware Transoceanic
Sun 01:05:00 AM 41.0249 -56.7998 90° East 545 627 32,000  Level FlightAware Transoceanic
Sun 01:06:00 AM 41.0235 -56.5998 91° East 545 627 32,000  Level FlightAware Transoceanic
Sun 01:07:00 AM 41.0218 -56.3998 91° East 545 627 32,000  Level FlightAware Transoceanic
Sun 01:08:00 AM 41.0197 -56.1997 91° East 545 627 32,000  Level FlightAware Transoceanic
Sun 01:09:00 AM 41.0173 -55.9997 91° East 545 627 32,000  Level FlightAware Transoceanic
Sun 01:10:00 AM 41.0145 -55.7998 91° East 545 627 32,000  Level FlightAware Transoceanic
Sun 01:11:00 AM 41.0114 -55.5998 91° East 545 627 32,000  Level FlightAware Transoceanic
Sun 01:12:00 AM 41.0079 -55.3998 91° East 545 627 32,000  Level FlightAware Transoceanic
Sun 01:13:00 AM 41.0042 -55.1999 92° East 545 627 32,000  Level FlightAware Transoceanic
Sun 01:14:00 AM 41.0000 -55.0000 88° East 545 627 32,000  Level FlightAware Transoceanic
Sun 01:15:00 AM 41.0043 -54.7918 88° East 545 627 32,000  Level FlightAware Transoceanic
Sun 01:15:23 AM 41.0000 -55.0000 88° East 567 652 32,000  Level New York Oceanic (ODAPS)
Sun 01:16:00 AM 41.0083 -54.5835 89° East 545 627 32,000  Level FlightAware Transoceanic
Sun 01:17:00 AM 41.0118 -54.3752 89° East 545 627 32,000  Level FlightAware Transoceanic
Sun 01:18:00 AM 41.0150 -54.1669 89° East 545 627 32,000  Level FlightAware Transoceanic
Sun 01:19:00 AM 41.0178 -53.9586 89° East 545 627 32,000  Level FlightAware Transoceanic
Sun 01:20:00 AM 41.0203 -53.7503 89° East 545 627 32,000  Level FlightAware Transoceanic
Sun 01:21:00 AM 41.0240 -53.3335 89° East 567 652 32,000  Level FlightAware Transoceanic
Sun 01:22:00 AM 41.0253 -53.1252 90° East 567 652 32,000  Level FlightAware Transoceanic
Sun 01:23:00 AM 41.0263 -52.9168 90° East 567 652 32,000  Level FlightAware Transoceanic
Sun 01:24:00 AM 41.0268 -52.7084 90° East 567 652 32,000  Level FlightAware Transoceanic
Sun 01:25:00 AM 41.0270 -52.5000 90° East 567 652 32,000  Level FlightAware Transoceanic
Sun 01:26:00 AM 41.0268 -52.2916 90° East 567 652 32,000  Level FlightAware Transoceanic
Sun 01:27:00 AM 41.0263 -52.0832 90° East 567 652 32,000  Level FlightAware Transoceanic
Sun 01:28:00 AM 41.0253 -51.8748 90° East 567 652 32,000  Level FlightAware Transoceanic
Sun 01:29:00 AM 41.0240 -51.6665 91° East 567 652 32,000  Level FlightAware Transoceanic
Sun 01:30:00 AM 41.0223 -51.4581 91° East 567 652 32,000  Level FlightAware Transoceanic
Sun 01:31:00 AM 41.0203 -51.2497 91° East 567 652 32,000  Level FlightAware Transoceanic
Sun 01:32:00 AM 41.0178 -51.0414 91° East 567 652 32,000  Level FlightAware Transoceanic
Sun 01:33:00 AM 41.0150 -50.8331 91° East 567 652 32,000  Level FlightAware Transoceanic
Sun 01:34:00 AM 41.0118 -50.6248 91° East 567 652 32,000  Level FlightAware Transoceanic
Sun 01:35:00 AM 41.0083 -50.4165 91° East 567 652 32,000  Level FlightAware Transoceanic
Sun 01:36:00 AM 41.0043 -50.2082 92° East 567 652 32,000  Level FlightAware Transoceanic
Sun 01:37:00 AM 41.0000 -50.0000 87° East 567 652 32,000  Level FlightAware Transoceanic
Sun 01:38:00 AM 41.0088 -49.7921 87° East 567 652 32,000  Level FlightAware Transoceanic
Sun 01:39:00 AM 41.0173 -49.5841 87° East 567 652 32,000  Level FlightAware Transoceanic
Sun 01:39:05 AM 41.0000 -50.0000 87° East 579 666 32,000  Level New York Oceanic (ODAPS)
Sun 01:40:00 AM 41.0253 -49.3761 87° East 567 652 32,000  Level FlightAware Transoceanic
Sun 01:41:00 AM 41.0330 -49.1681 87° East 567 652 32,000  Level FlightAware Transoceanic
Sun 01:42:00 AM 41.0404 -48.9599 87° East 567 652 32,000  Level FlightAware Transoceanic
Sun 01:43:00 AM 41.0473 -48.7518 88° East 567 652 32,000  Level FlightAware Transoceanic
Sun 01:44:00 AM 41.0539 -48.5436 88° East 567 652 32,000  Level FlightAware Transoceanic
Sun 01:45:00 AM 41.0611 -48.2999 88° East 579 666 32,000  Level FlightAware Transoceanic
Sun 01:46:00 AM 41.0670 -48.0872 88° East 579 666 32,000  Level FlightAware Transoceanic
Sun 01:47:00 AM 41.0725 -47.8745 88° East 579 666 32,000  Level FlightAware Transoceanic
Sun 01:48:00 AM 41.0775 -47.6617 88° East 579 666 32,000  Level FlightAware Transoceanic
Sun 01:49:00 AM 41.0823 -47.4488 88° East 579 666 32,000  Level FlightAware Transoceanic
Sun 01:50:00 AM 41.0866 -47.2360 89° East 579 666 32,000  Level FlightAware Transoceanic
Sun 01:51:00 AM 41.0905 -47.0231 89° East 579 666 32,000  Level FlightAware Transoceanic
Sun 01:52:00 AM 41.0940 -46.8102 89° East 579 666 32,000  Level FlightAware Transoceanic
Sun 01:53:00 AM 41.0972 -46.5973 89° East 579 666 32,000  Level FlightAware Transoceanic
Sun 01:54:00 AM 41.0999 -46.3844 89° East 579 666 32,000  Level FlightAware Transoceanic
Sun 01:55:00 AM 41.1022 -46.1714 89° East 579 666 32,000  Level FlightAware Transoceanic
Sun 01:56:00 AM 41.1042 -45.9585 89° East 579 666 32,000  Level FlightAware Transoceanic
Sun 01:57:00 AM 41.1058 -45.7455 90° East 579 666 32,000  Level FlightAware Transoceanic
Sun 01:58:00 AM 41.1070 -45.5325 90° East 579 666 32,000  Level FlightAware Transoceanic
Sun 01:59:00 AM 41.1077 -45.3195 90° East 579 666 32,000  Level FlightAware Transoceanic
Sun 02:00:00 AM 41.1081 -45.1065 90° East 579 666 32,000  Level FlightAware Transoceanic
Sun 02:01:00 AM 41.1081 -44.8935 90° East 579 666 32,000  Level FlightAware Transoceanic
Sun 02:02:00 AM 41.1077 -44.6805 90° East 579 666 32,000  Level FlightAware Transoceanic
Sun 02:03:00 AM 41.1070 -44.4675 90° East 579 666 32,000  Level FlightAware Transoceanic
Sun 02:04:00 AM 41.1058 -44.2545 90° East 579 666 32,000  Level FlightAware Transoceanic
Sun 02:05:00 AM 41.1042 -44.0415 91° East 579 666 32,000  Level FlightAware Transoceanic
Sun 02:06:00 AM 41.1022 -43.8286 91° East 579 666 32,000  Level FlightAware Transoceanic
Sun 02:07:00 AM 41.0999 -43.6156 91° East 579 666 32,000  Level FlightAware Transoceanic
Sun 02:08:00 AM 41.0972 -43.4027 91° East 579 666 32,000  Level FlightAware Transoceanic
Sun 02:09:00 AM 41.0940 -43.1898 91° East 579 666 32,000  Level FlightAware Transoceanic
Sun 02:10:00 AM 41.0905 -42.9769 91° East 579 666 32,000  Level FlightAware Transoceanic
Sun 02:11:00 AM 41.0866 -42.7640 91° East 579 666 32,000  Level FlightAware Transoceanic
Sun 02:12:00 AM 41.0823 -42.5512 92° East 579 666 32,000  Level FlightAware Transoceanic
Sun 02:13:00 AM 41.0775 -42.3383 92° East 579 666 32,000  Level FlightAware Transoceanic
Sun 02:14:00 AM 41.0725 -42.1255 92° East 579 666 32,000  Level FlightAware Transoceanic
Sun 02:15:00 AM 41.0670 -41.9128 92° East 579 666 32,000  Level FlightAware Transoceanic
Sun 02:16:00 AM 41.0611 -41.7001 92° East 579 666 32,000  Level FlightAware Transoceanic
Sun 02:17:00 AM 41.0548 -41.4874 92° East 579 666 32,000  Level FlightAware Transoceanic
Sun 02:18:00 AM 41.0482 -41.2748 92° East 579 666 32,000  Level FlightAware Transoceanic
Sun 02:19:00 AM 41.0411 -41.0622 93° East 579 666 32,000  Level FlightAware Transoceanic
Sun 02:20:00 AM 41.0337 -40.8497 93° East 579 666 32,000  Level FlightAware Transoceanic
Sun 02:21:00 AM 41.0258 -40.6372 93° East 579 666 32,000  Level FlightAware Transoceanic
Sun 02:22:00 AM 41.0176 -40.4247 93° East 579 666 32,000  Level FlightAware Transoceanic
Sun 02:23:00 AM 41.0090 -40.2123 93° East 579 666 32,000  Level FlightAware Transoceanic
Sun 02:24:00 AM 41.0000 -40.0000 87° East 579 666 32,000  Level FlightAware Transoceanic
Sun 02:25:00 AM 41.0086 -39.7963 87° East 579 666 32,000  Level FlightAware Transoceanic
Sun 02:26:00 AM 41.0169 -39.5926 87° East 579 666 32,000  Level FlightAware Transoceanic
Sun 02:27:00 AM 41.0248 -39.3889 87° East 579 666 32,000  Level FlightAware Transoceanic
Sun 02:28:00 AM 41.0324 -39.1851 87° East 579 666 32,000  Level FlightAware Transoceanic
Sun 02:28:00 AM 41.0000 -40.0000 87° East 554 638 32,000  Level ETMS Enhanced Traffic Management System
Sun 02:29:00 AM 41.0396 -38.9812 87° East 579 666 32,000  Level FlightAware Transoceanic
Sun 02:30:00 AM 41.0465 -38.7773 88° East 579 666 32,000  Level FlightAware Transoceanic
Sun 02:31:00 AM 41.0530 -38.5733 88° East 579 666 32,000  Level FlightAware Transoceanic
Sun 02:32:00 AM 41.0591 -38.3694 88° East 579 666 32,000  Level FlightAware Transoceanic
Sun 02:33:00 AM 41.0648 -38.1654 88° East 579 666 32,000  Level FlightAware Transoceanic
Sun 02:34:00 AM 41.0703 -37.9613 88° East 554 638 32,000  Level FlightAware Transoceanic
Sun 02:35:00 AM 41.0753 -37.7572 88° East 554 638 32,000  Level FlightAware Transoceanic
Sun 02:36:00 AM 41.0800 -37.5531 88° East 554 638 32,000  Level FlightAware Transoceanic
Sun 02:37:00 AM 41.0843 -37.3489 88° East 554 638 32,000  Level FlightAware Transoceanic
Sun 02:38:00 AM 41.0883 -37.1448 89° East 554 638 32,000  Level FlightAware Transoceanic
Sun 02:39:00 AM 41.0919 -36.9406 89° East 554 638 32,000  Level FlightAware Transoceanic
Sun 02:40:00 AM 41.0951 -36.7364 89° East 554 638 32,000  Level FlightAware Transoceanic
Sun 02:41:00 AM 41.0980 -36.5321 89° East 554 638 32,000  Level FlightAware Transoceanic
Sun 02:42:00 AM 41.1006 -36.3279 89° East 554 638 32,000  Level FlightAware Transoceanic
Sun 02:43:00 AM 41.1027 -36.1236 89° East 554 638 32,000  Level FlightAware Transoceanic
Sun 02:44:00 AM 41.1045 -35.9193 89° East 554 638 32,000  Level FlightAware Transoceanic
Sun 02:45:00 AM 41.1060 -35.7150 90° East 554 638 32,000  Level FlightAware Transoceanic
Sun 02:46:00 AM 41.1071 -35.5108 90° East 554 638 32,000  Level FlightAware Transoceanic
Sun 02:47:00 AM 41.1078 -35.3065 90° East 554 638 32,000  Level FlightAware Transoceanic
Sun 02:48:00 AM 41.1081 -35.1021 90° East 554 638 32,000  Level FlightAware Transoceanic
Sun 02:49:00 AM 41.1081 -34.8979 90° East 554 638 32,000  Level FlightAware Transoceanic
Sun 02:50:00 AM 41.1078 -34.6935 90° East 554 638 32,000  Level FlightAware Transoceanic
Sun 02:51:00 AM 41.1071 -34.4892 90° East 554 638 32,000  Level FlightAware Transoceanic
Sun 02:52:00 AM 41.1060 -34.2850 90° East 554 638 32,000  Level FlightAware Transoceanic
Sun 02:53:00 AM 41.1045 -34.0807 91° East 554 638 32,000  Level FlightAware Transoceanic
Sun 02:54:00 AM 41.1027 -33.8764 91° East 554 638 32,000  Level FlightAware Transoceanic
Sun 02:55:00 AM 41.1006 -33.6721 91° East 554 638 32,000  Level FlightAware Transoceanic
Sun 02:56:00 AM 41.0980 -33.4679 91° East 554 638 32,000  Level FlightAware Transoceanic
Sun 02:57:00 AM 41.0951 -33.2636 91° East 554 638 32,000  Level FlightAware Transoceanic
Sun 02:58:00 AM 41.0919 -33.0594 91° East 554 638 32,000  Level FlightAware Transoceanic
Sun 02:59:00 AM 41.0883 -32.8552 91° East 554 638 32,000  Level FlightAware Transoceanic
Sun 03:00:00 AM 41.0843 -32.6511 92° East 554 638 32,000  Level FlightAware Transoceanic
Sun 03:01:00 AM 41.0800 -32.4469 92° East 554 638 32,000 2,182 Level FlightAware Transoceanic
Sun 03:01:50 AM 39.5000 -33.7850 92° East 528 608 36,000 2,857 Climbing FlightAware ADS-B
Sun 03:02:24 AM 39.5080 -33.6700 85° East 519 597 36,000  Level FlightAware ADS-B
Sun 03:03:05 AM 39.5160 -33.5460 85° East 507 583 36,000  Level FlightAware ADS-B
Sun 03:03:40 AM 39.5240 -33.4430 84° East 499 574 36,000  Level FlightAware ADS-B
Sun 03:04:21 AM 39.5320 -33.3220 85° East 495 570 36,000  Level FlightAware ADS-B
Sun 03:04:59 AM 39.5400 -33.2120 85° East 498 573 36,000  Level FlightAware ADS-B
Sun 03:05:27 AM 39.5600 -33.1310 72° East 494 568 36,000  Level FlightAware ADS-B
Sun 03:06:05 AM 39.5930 -33.0400 65° Northeast 495 570 36,000  Level FlightAware ADS-B
Sun 03:06:43 AM 39.6390 -32.9300 61° Northeast 497 572 36,000  Level FlightAware ADS-B
Sun 03:07:32 AM 39.6940 -32.8050 60° Northeast 498 573 36,000  Level FlightAware ADS-B
Sun 03:08:08 AM 39.7350 -32.7120 60° Northeast 498 573 36,000  Level FlightAware ADS-B
Sun 03:08:47 AM 39.7820 -32.6070 60° Northeast 501 577 36,000  Level FlightAware ADS-B
Sun 03:09:25 AM 39.8250 -32.5080 60° Northeast 502 578 36,000  Level FlightAware ADS-B
Sun 03:10:00 AM 39.8660 -32.4170 60° Northeast 504 580 36,000  Level FlightAware ADS-B
Sun 03:10:26 AM 39.8960 -32.3510 59° Northeast 505 581 36,000  Level FlightAware ADS-B
Sun 03:11:25 AM 39.9650 -32.1940 60° Northeast 511 588 36,000  Level FlightAware ADS-B
Sun 03:11:57 AM 40.0020 -32.1130 59° Northeast 515 593 36,000  Level FlightAware ADS-B
Sun 03:12:33 AM 40.0450 -32.0150 60° Northeast 518 596 36,000  Level FlightAware ADS-B
Sun 03:13:09 AM 40.0900 -31.9130 60° Northeast 522 601 36,000  Level FlightAware ADS-B
Sun 03:13:46 AM 40.1340 -31.8110 61° Northeast 526 605 36,000  Level FlightAware ADS-B
Sun 03:14:17 AM 40.1720 -31.7260 60° Northeast 529 609 36,000  Level FlightAware ADS-B
Sun 03:14:59 AM 40.2220 -31.6120 60° Northeast 531 611 36,000  Level FlightAware ADS-B
Sun 03:15:36 AM 40.2630 -31.5180 60° Northeast 531 611 36,000  Level FlightAware ADS-B
Sun 03:16:19 AM 40.3160 -31.3970 60° Northeast 531 611 36,000  Level FlightAware ADS-B
Sun 03:16:52 AM 40.3620 -31.2930 60° Northeast 528 608 36,000  Level FlightAware ADS-B
Sun 03:17:25 AM 40.4060 -31.2100 55° Northeast 526 605 36,000  Level FlightAware ADS-B
Sun 03:18:01 AM 40.4570 -31.1120 56° Northeast 525 604 36,000  Level FlightAware ADS-B
Sun 03:18:49 AM 40.5210 -30.9880 56° Northeast 523 602 36,000  Level FlightAware ADS-B
Sun 03:19:26 AM 40.5700 -30.8880 57° Northeast 524 603 36,000  Level FlightAware ADS-B
Sun 03:20:03 AM 40.6170 -30.7900 58° Northeast 526 605 36,000  Level FlightAware ADS-B
Sun 03:20:35 AM 40.6610 -30.7010 57° Northeast 528 608 36,000  Level FlightAware ADS-B
Sun 03:21:22 AM 40.7170 -30.5860 57° Northeast 528 608 36,000  Level FlightAware ADS-B
Sun 03:21:58 AM 40.7580 -30.5030 57° Northeast 528 608 36,000  Level FlightAware ADS-B
Sun 03:22:37 AM 40.8220 -30.3690 58° Northeast 534 615 36,000  Level FlightAware ADS-B
Sun 03:23:33 AM 40.8960 -30.2160 57° Northeast 536 617 36,000  Level FlightAware ADS-B
Sun 03:24:05 AM 40.9400 -30.1260 57° Northeast 538 619 36,000  Level FlightAware ADS-B
Sun 03:24:46 AM 40.9870 -30.0270 58° Northeast 540 621 36,000  Level FlightAware ADS-B
Sun 03:24:57 AM 40.9860 -29.9690 91° East 548 631 36,000  Level FlightAware ADS-B
Sun 03:25:30 AM 40.9780 -29.8580 95° East 545 627 36,000  Level FlightAware ADS-B
Sun 03:26:06 AM 40.9610 -29.7390 101° East 547 629 36,000  Level FlightAware ADS-B
Sun 03:26:42 AM 40.9430 -29.6260 102° East 549 632 36,000  Level FlightAware ADS-B
Sun 03:27:12 AM 40.9270 -29.5240 102° East 550 633 36,000  Level FlightAware ADS-B
Sun 03:27:50 AM 40.9080 -29.4010 102° East 552 635 36,000  Level FlightAware ADS-B
Sun 03:28:26 AM 40.8880 -29.2810 102° East 551 634 36,000  Level FlightAware ADS-B
Sun 03:28:59 AM 40.8710 -29.1730 102° East 552 635 36,000  Level FlightAware ADS-B
Sun 03:29:36 AM 40.8520 -29.0520 102° East 553 636 36,000  Level FlightAware ADS-B
Sun 03:30:11 AM 40.8330 -28.9350 102° East 552 635 36,000  Level FlightAware ADS-B
Sun 03:30:44 AM 40.8160 -28.8280 102° East 552 635 36,000  Level FlightAware ADS-B
Sun 03:31:18 AM 40.7980 -28.7170 102° East 552 635 36,000  Level FlightAware ADS-B
Sun 03:31:57 AM 40.7770 -28.5880 102° East 549 632 36,000  Level FlightAware ADS-B
Sun 03:32:29 AM 40.7590 -28.4830 103° East 547 629 36,000  Level FlightAware ADS-B
Sun 03:33:06 AM 40.7390 -28.3620 102° East 545 627 36,000  Level FlightAware ADS-B
Sun 03:33:43 AM 40.7210 -28.2530 102° East 542 624 36,000  Level FlightAware ADS-B
Sun 03:34:14 AM 40.7030 -28.1470 103° East 532 612 36,000  Level FlightAware ADS-B
Sun 03:34:47 AM 40.6850 -28.0410 103° East 532 612 36,000  Level FlightAware ADS-B
Sun 03:35:25 AM 40.6650 -27.9260 103° East 536 617 36,000  Level FlightAware ADS-B
Sun 03:36:02 AM 40.6440 -27.8020 103° East 539 620 36,000  Level FlightAware ADS-B
Sun 03:36:32 AM 40.6280 -27.7090 103° East 540 621 36,000  Level FlightAware ADS-B
Sun 03:37:08 AM 40.6070 -27.5900 103° East 541 623 36,000  Level FlightAware ADS-B
Sun 03:37:43 AM 40.5880 -27.4800 103° East 543 625 36,000  Level FlightAware ADS-B
Sun 03:38:18 AM 40.5680 -27.3700 103° East 543 625 36,000  Level FlightAware ADS-B
Sun 03:38:55 AM 40.5470 -27.2500 103° East 543 625 36,000  Level FlightAware ADS-B
Sun 03:39:30 AM 40.5270 -27.1360 103° East 544 626 36,000  Level FlightAware ADS-B
Sun 03:40:06 AM 40.5060 -27.0220 104° East 544 626 36,000  Level FlightAware ADS-B
Sun 03:40:38 AM 40.4870 -26.9160 103° East 543 625 36,000  Level FlightAware ADS-B
Sun 03:41:15 AM 40.4670 -26.8020 103° East 542 624 36,000  Level FlightAware ADS-B
Sun 03:41:51 AM 40.4450 -26.6860 104° East 542 624 36,000  Level FlightAware ADS-B
Sun 03:42:23 AM 40.4270 -26.5850 103° East 541 623 36,000  Level FlightAware ADS-B
Sun 03:42:59 AM 40.4050 -26.4680 104° East 540 621 36,000  Level FlightAware ADS-B
Sun 03:43:37 AM 40.3830 -26.3490 104° East 538 619 36,000  Level FlightAware ADS-B
Sun 03:44:16 AM 40.3600 -26.2270 104° East 536 617 36,000  Level FlightAware ADS-B
Sun 03:44:52 AM 40.3390 -26.1140 104° East 536 617 36,000  Level FlightAware ADS-B
Sun 03:45:31 AM 40.3150 -25.9880 104° East 535 616 36,000  Level FlightAware ADS-B
Sun 03:46:09 AM 40.2930 -25.8710 104° East 534 615 36,000  Level FlightAware ADS-B
Sun 03:46:45 AM 40.2710 -25.7580 104° East 534 615 36,000  Level FlightAware ADS-B
Sun 03:47:19 AM 40.2500 -25.6500 104° East 534 615 36,000  Level FlightAware ADS-B
Sun 03:47:52 AM 40.2310 -25.5490 104° East 534 615 36,000  Level FlightAware ADS-B
Sun 03:48:29 AM 40.2080 -25.4330 105° East 533 613 36,000  Level FlightAware ADS-B
Sun 03:49:07 AM 40.1890 -25.3320 104° East 533 613 36,000  Level FlightAware ADS-B
Sun 03:49:44 AM 40.1700 -25.2330 104° East 533 613 36,000  Level FlightAware ADS-B
Sun 03:50:22 AM 40.1390 -25.0810 105° East 531 611 36,000  Level FlightAware ADS-B
Sun 03:51:00 AM 40.1190 -24.9790 104° East 531 611 36,000  Level FlightAware ADS-B
Sun 03:51:37 AM 40.1000 -24.8810 104° East 531 611 36,000  Level FlightAware ADS-B
Sun 03:52:13 AM 40.0820 -24.7850 104° East 531 611 36,000  Level FlightAware ADS-B
Sun 03:52:49 AM 40.0640 -24.6900 104° East 531 611 36,000  Level FlightAware ADS-B
Sun 03:53:25 AM 40.0460 -24.5950 104° East 531 611 36,000  Level FlightAware ADS-B
Sun 03:54:01 AM 40.0280 -24.4990 104° East 531 611 36,000  Level FlightAware ADS-B
Sun 03:54:37 AM 40.0090 -24.4040 105° East 531 611 36,000  Level FlightAware ADS-B
Sun 03:55:13 AM 39.9910 -24.3090 104° East 531 611 36,000  Level FlightAware ADS-B
Sun 03:55:50 AM 39.9730 -24.2110 103° East 531 611 36,000  Level FlightAware ADS-B
Sun 03:56:26 AM 39.9540 -24.1160 105° East 531 611 36,000  Level FlightAware ADS-B
Sun 03:57:02 AM 39.9360 -24.0210 104° East 531 611 36,000  Level FlightAware ADS-B
Sun 03:57:38 AM 39.9180 -23.9260 104° East 531 611 36,000  Level FlightAware ADS-B
Sun 03:58:14 AM 39.9000 -23.8310 104° East 531 611 36,000  Level FlightAware ADS-B
Sun 03:58:50 AM 39.8820 -23.7350 104° East 531 611 36,000  Level FlightAware ADS-B
Sun 03:59:26 AM 39.8630 -23.6400 105° East 531 611 36,000  Level FlightAware ADS-B
Sun 04:00:02 AM 39.8450 -23.5450 104° East 531 611 36,000 -15 Level FlightAware ADS-B
Sun 04:02:00 AM 39.7683 -23.1999 106° East  Level FlightAware Approximate
Sun 04:03:00 AM 39.7290 -23.0246 106° East  Level FlightAware Approximate
Sun 04:04:00 AM 39.6893 -22.8496 106° East  Level FlightAware Approximate
Sun 04:05:00 AM 39.6494 -22.6748 106° East  Level FlightAware Approximate
Sun 04:06:00 AM 39.6092 -22.5002 107° East  Level FlightAware Approximate
Sun 04:07:00 AM 39.5688 -22.3258 107° East  Level FlightAware Approximate
Sun 04:08:00 AM 39.5281 -22.1516 107° East  Level FlightAware Approximate
Sun 04:09:00 AM 39.4872 -21.9776 107° East  Level FlightAware Approximate
Sun 04:10:00 AM 39.4460 -21.8039 107° East  Level FlightAware Approximate
Sun 04:11:00 AM 39.4045 -21.6303 107° East  Level FlightAware Approximate
Sun 04:12:00 AM 39.3628 -21.4569 107° East  Level FlightAware Approximate
Sun 04:13:00 AM 39.3208 -21.2838 107° East  Level FlightAware Approximate
Sun 04:14:00 AM 39.2786 -21.1108 107° East  Level FlightAware Approximate
Sun 04:15:00 AM 39.2361 -20.9380 108° East  Level FlightAware Approximate
Sun 04:16:00 AM 39.1934 -20.7655 108° East  Level FlightAware Approximate
Sun 04:17:00 AM 39.1504 -20.5932 108° East  Level FlightAware Approximate
Sun 04:18:00 AM 39.1071 -20.4211 108° East  Level FlightAware Approximate
Sun 04:19:00 AM 39.0636 -20.2492 108° East  Level FlightAware Approximate
Sun 04:20:00 AM 39.0199 -20.0775 108° East  Level FlightAware Approximate
Sun 04:21:00 AM 38.9667 -19.9105 116° Southeast  Level FlightAware Approximate
Sun 04:22:00 AM 38.9060 -19.7479 116° Southeast  Level FlightAware Approximate
Sun 04:23:00 AM 38.8451 -19.5855 116° Southeast  Level FlightAware Approximate
Sun 04:24:00 AM 38.7839 -19.4233 116° Southeast  Level FlightAware Approximate
Sun 04:25:00 AM 38.7225 -19.2615 116° Southeast  Level FlightAware Approximate
Sun 04:26:00 AM 38.6609 -19.0999 116° Southeast  Level FlightAware Approximate
Sun 04:27:00 AM 38.5991 -18.9387 116° Southeast  Level FlightAware Approximate
Sun 04:28:00 AM 38.5370 -18.7777 116° Southeast  Level FlightAware Approximate
Sun 04:29:00 AM 38.4748 -18.6169 116° Southeast  Level FlightAware Approximate
Sun 04:30:00 AM 38.4123 -18.4565 116° Southeast  Level FlightAware Approximate
Sun 04:31:00 AM 38.3496 -18.2963 116° Southeast  Level FlightAware Approximate
Sun 04:32:00 AM 38.2867 -18.1364 117° Southeast  Level FlightAware Approximate
Sun 04:33:00 AM 38.2235 -17.9768 117° Southeast  Level FlightAware Approximate
Sun 04:34:00 AM 38.1601 -17.8175 117° Southeast  Level FlightAware Approximate
Sun 04:35:00 AM 38.0966 -17.6584 117° Southeast  Level FlightAware Approximate
Sun 04:36:00 AM 38.0328 -17.4996 117° Southeast  Level FlightAware Approximate
Sun 04:37:00 AM 37.9688 -17.3411 117° Southeast  Level FlightAware Approximate
Sun 04:38:00 AM 37.9046 -17.1829 117° Southeast  Level FlightAware Approximate
Sun 04:39:00 AM 37.8401 -17.0250 117° Southeast  Level FlightAware Approximate
Sun 04:40:00 AM 37.7755 -16.8673 117° Southeast  Level FlightAware Approximate
Sun 04:41:00 AM 37.7107 -16.7099 117° Southeast  Level FlightAware Approximate
Sun 04:42:00 AM 37.6456 -16.5527 118° Southeast  Level FlightAware Approximate
Sun 04:43:00 AM 37.5803 -16.3959 118° Southeast  Level FlightAware Approximate
Sun 04:44:00 AM 37.5149 -16.2393 118° Southeast  Level FlightAware Approximate
Sun 04:45:00 AM 37.4492 -16.0830 118° Southeast  Level FlightAware Approximate
Sun 04:46:00 AM 37.3833 -15.9270 118° Southeast  Level FlightAware Approximate
Sun 04:47:00 AM 37.3172 -15.7713 118° Southeast  Level FlightAware Approximate
Sun 04:48:00 AM 37.2509 -15.6158 118° Southeast  Level FlightAware Approximate
Sun 04:49:00 AM 37.1844 -15.4606 118° Southeast  Level FlightAware Approximate
Sun 04:50:00 AM 37.1177 -15.3056 118° Southeast  Level FlightAware Approximate
Sun 04:51:00 AM 37.0508 -15.1510 118° Southeast  Level FlightAware Approximate
Sun 04:52:00 AM 36.9837 -14.9966 119° Southeast  Level FlightAware Approximate
Sun 04:53:00 AM 36.9164 -14.8425 119° Southeast  Level FlightAware Approximate
Sun 04:54:00 AM 36.8489 -14.6887 119° Southeast  Level FlightAware Approximate
Sun 04:55:00 AM 36.7812 -14.5351 119° Southeast  Level FlightAware Approximate
Sun 04:56:00 AM 36.7133 -14.3818 119° Southeast  Level FlightAware Approximate
Sun 04:57:00 AM 36.6453 -14.2288 119° Southeast  Level FlightAware Approximate
Sun 04:58:00 AM 36.5770 -14.0760 119° Southeast  Level FlightAware Approximate
Sun 04:59:00 AM 36.5085 -13.9235 119° Southeast  Level FlightAware Approximate
Sun 05:00:00 AM 36.4398 -13.7713 119° Southeast  Level FlightAware Approximate
Sun 05:01:00 AM 36.3710 -13.6194 119° Southeast  Level FlightAware Approximate
Sun 05:02:00 AM 36.3019 -13.4677 119° Southeast  Level FlightAware Approximate
Sun 05:03:00 AM 36.2327 -13.3163 120° Southeast  Level FlightAware Approximate
Sun 05:04:00 AM 36.1632 -13.1652 120° Southeast  Level FlightAware Approximate
Sun 05:04:51 AM 35.8220 -12.8060 120° Southeast 491 565 35,000  Level FlightAware ADS-B
Sun 05:05:00 AM 36.0936 -13.0143 120° Southeast  Level FlightAware Approximate
Sun 05:05:21 AM 35.7870 -12.7420 124° Southeast 492 566 35,000  Level FlightAware ADS-B
Sun 05:05:57 AM 35.7440 -12.6650 125° Southeast 492 566 35,000  Level FlightAware ADS-B
Sun 05:06:31 AM 35.6960 -12.5790 124° Southeast 493 567 35,000  Level FlightAware ADS-B
Sun 05:07:07 AM 35.6540 -12.5040 125° Southeast 493 567 35,000  Level FlightAware ADS-B
Sun 05:07:48 AM 35.6000 -12.4060 124° Southeast 494 568 35,000  Level FlightAware ADS-B
Sun 05:08:26 AM 35.5470 -12.3140 125° Southeast 496 571 35,000  Level FlightAware ADS-B
Sun 05:09:01 AM 35.5020 -12.2310 124° Southeast 496 571 35,000  Level FlightAware ADS-B
Sun 05:09:43 AM 35.4550 -12.1430 123° Southeast 495 570 35,000  Level FlightAware ADS-B
Sun 05:10:19 AM 35.4170 -12.0710 123° Southeast 495 570 35,000  Level FlightAware ADS-B
Sun 05:10:55 AM 35.3790 -11.9990 123° Southeast 495 570 35,000  Level FlightAware ADS-B
Sun 05:11:33 AM 35.3390 -11.9230 123° Southeast 495 570 35,000  Level FlightAware ADS-B
Sun 05:12:10 AM 35.2990 -11.8490 124° Southeast 495 570 35,000  Level FlightAware ADS-B
Sun 05:12:46 AM 35.2610 -11.7770 123° Southeast 495 570 35,000  Level FlightAware ADS-B
Sun 05:13:22 AM 35.2230 -11.7050 123° Southeast 495 570 35,000  Level FlightAware ADS-B
Sun 05:13:58 AM 35.1850 -11.6330 123° Southeast 495 570 35,000  Level FlightAware ADS-B
Sun 05:14:34 AM 35.1470 -11.5610 123° Southeast 495 570 35,000  Level FlightAware ADS-B
Sun 05:15:10 AM 35.1080 -11.4890 123° Southeast 495 570 35,000  Level FlightAware ADS-B
Sun 05:15:47 AM 35.0690 -11.4160 123° Southeast 495 570 35,000  Level FlightAware ADS-B
Sun 05:16:21 AM 35.0330 -11.3480 123° Southeast 495 570 35,000  Level FlightAware ADS-B
Sun 05:16:57 AM 34.9950 -11.2760 123° Southeast 495 570 35,000  Level FlightAware ADS-B
Sun 05:17:33 AM 34.9570 -11.2040 123° Southeast 495 570 35,000  Level FlightAware ADS-B
Sun 05:18:09 AM 34.9190 -11.1330 123° Southeast 495 570 35,000  Level FlightAware ADS-B
Sun 05:18:45 AM 34.8800 -11.0610 123° Southeast 495 570 35,000 -1,009 Level FlightAware ADS-B
Sun 05:21:00 AM 34.7730 -10.6991 110° East  Level FlightAware Approximate
Sun 05:22:00 AM 34.7251 -10.5385 110° East  Level FlightAware Approximate
Sun 05:23:00 AM 34.6770 -10.3782 110° East  Level FlightAware Approximate
Sun 05:24:00 AM 34.6287 -10.2180 110° East  Level FlightAware Approximate
Sun 05:25:00 AM 34.5801 -10.0580 110° East  Level FlightAware Approximate
Sun 05:26:00 AM 34.5314 -9.8982 110° East  Level FlightAware Approximate
Sun 05:27:00 AM 34.4824 -9.7386 110° East  Level FlightAware Approximate
Sun 05:28:00 AM 34.4093 -9.5934 132° Southeast  Level Estimated
Sun 05:29:00 AM 34.3359 -9.4484 118° Southeast  Level Estimated
Sun 05:30:00 AM 34.2624 -9.3037 121° Southeast  Level Estimated
Sun 05:31:00 AM 34.1887 -9.1592 124° Southeast  Level Estimated
Sun 05:32:00 AM 34.1157 -9.0144 121° Southeast  Level FlightAware Approximate
Sun 05:33:00 AM 34.0416 -8.8705 118° Southeast  Level Estimated
Sun 05:34:00 AM 33.9673 -8.7268 124° Southeast  Level Estimated
Sun 05:35:00 AM 33.8929 -8.5834 124° Southeast  Level Estimated
Sun 05:36:00 AM 33.8157 -8.4423 123° Southeast  Level FlightAware Approximate
Sun 05:36:53 AM 33.6260 -8.3800 121° Southeast 394 453 16,100  Level FlightAware ADS-B
Sun 05:37:00 AM 33.7414 -8.2991 121° Southeast  Level Estimated
Sun 05:37:28 AM 33.5940 -8.3170 121° Southeast 389 448 15,100  Level FlightAware ADS-B
Sun 05:38:23 AM 33.5430 -8.2160 121° Southeast 385 443 13,200 -1,958 Descending FlightAware ADS-B
Sun 05:39:03 AM 33.5060 -8.1440 122° Southeast 377 434 12,000 -1,800 Descending FlightAware ADS-B
Sun 05:39:33 AM 33.4800 -8.0930 121° Southeast 371 427 11,100 -1,754 Descending FlightAware ADS-B
Sun 05:40:08 AM 33.4470 -8.0290 122° Southeast 362 417 10,100 -1,309 Descending FlightAware ADS-B
Sun 05:40:28 AM 33.4310 -7.9970 121° Southeast 346 398 9,900 -514 Descending FlightAware ADS-B
Sun 05:40:43 AM 33.4180 -7.9720 122° Southeast 334 384 9,800 -686 Descending FlightAware ADS-B
Sun 05:41:03 AM 33.4020 -7.9420 123° Southeast 321 369 9,500 -840 Descending FlightAware ADS-B
Sun 05:41:33 AM 33.3790 -7.8970 121° Southeast 305 351 9,100 -750 Descending FlightAware ADS-B
Sun 05:41:43 AM 33.3720 -7.8840 123° Southeast 300 345 9,000 -800 Descending FlightAware ADS-B
Sun 05:42:03 AM 33.3530 -7.8610 135° Southeast 291 335 8,700 -900 Descending FlightAware ADS-B
Sun 05:42:23 AM 33.3340 -7.8380 135° Southeast 286 329 8,400 -900 Descending FlightAware ADS-B
Sun 05:42:43 AM 33.3160 -7.8150 133° Southeast 279 321 8,100 -1,067 Descending FlightAware ADS-B
Sun 05:43:08 AM 33.2940 -7.7890 135° Southeast 262 302 7,600 -1,333 Descending FlightAware ADS-B
Sun 05:43:28 AM 33.2770 -7.7680 134° Southeast 253 291 7,100 -1,800 Descending FlightAware ADS-B
Sun 05:43:48 AM 33.2610 -7.7470 132° Southeast 257 296 6,400 -1,650 Descending FlightAware ADS-B
Sun 05:44:08 AM 33.2440 -7.7270 135° Southeast 258 297 6,000 -600 Descending FlightAware ADS-B
Sun 05:44:28 AM 33.2280 -7.7070 134° Southeast 256 295 6,000  Level FlightAware ADS-B
Sun 05:44:43 AM 33.2140 -7.6980 152° Southeast 254 292 6,000  Level FlightAware ADS-B
Sun 05:45:09 AM 33.1900 -7.6860 157° South 254 292 6,000 -581 Level FlightAware ADS-B
Sun 05:45:45 AM 33.1500 -7.6630 154° Southeast 251 289 5,400 -1,525 Descending FlightAware ADS-B
Sun 05:46:08 AM 33.1250 -7.6490 155° Southeast 245 282 4,500 -1,674 Descending FlightAware ADS-B
Sun 05:46:28 AM 33.1040 -7.6380 156° South 243 280 4,200 -526 Descending FlightAware ADS-B
Sun 05:47:05 AM 33.0710 -7.6210 157° South 241 277 4,000 -324 Descending FlightAware ADS-B
Sun 05:49:00 AM 33.3388 -7.5912 North  Level Estimated
Sun 05:50:00 AM 33.3680 -7.5880 North  Level Estimated
Sun 05:51:00 AM 33.3680 -7.5880 103° East  Level Estimated
Sun 05:52:00 AM 33.3680 -7.5880 103° East  Level Estimated
Sun 05:53:00 AM 33.3680 -7.5880 103° East  Level Estimated
Sun 05:54:00 AM 33.3680 -7.5880 103° East  Level Estimated
Sun 05:55:00 AM 33.3680 -7.5880 103° East  Level Estimated
Sun 05:56:00 AM 33.3680 -7.5880 103° East  Level Estimated
Sun 05:57:00 AM 33.3680 -7.5880 103° East  Level Estimated
Sun 05:58:00 AM 33.3680 -7.5880 103° East  Level Estimated
Sun 05:59:00 AM 33.3680 -7.5880 103° East  Level Estimated
Sun 06:00:00 AM 33.3680 -7.5880 103° East  Level Estimated

Login

Don't have an account? Register now (free) for customized features, flight alerts, and more!